createdAt,value
2022-09-01T00:00:01.945Z,412
2022-09-01T00:00:11.073Z,413
2022-09-01T00:00:21.082Z,414
2022-09-01T00:00:31.085Z,413
2022-09-01T00:00:41.192Z,414
2022-09-01T00:00:51.105Z,416
2022-09-01T00:01:01.195Z,416
2022-09-01T00:01:11.143Z,416
2022-09-01T00:01:21.287Z,416
2022-09-01T00:01:31.155Z,416
2022-09-01T00:01:41.173Z,416
2022-09-01T00:01:51.182Z,415
2022-09-01T00:02:01.195Z,415
2022-09-01T00:02:11.251Z,415
2022-09-01T00:02:21.299Z,414
2022-09-01T00:02:31.300Z,412
2022-09-01T00:02:41.293Z,411
2022-09-01T00:02:51.313Z,411
2022-09-01T00:03:01.358Z,411
2022-09-01T00:03:11.283Z,410
2022-09-01T00:03:21.295Z,411
2022-09-01T00:03:31.313Z,411
2022-09-01T00:03:41.324Z,413
2022-09-01T00:03:51.373Z,412
2022-09-01T00:04:01.394Z,413
2022-09-01T00:04:11.434Z,413
2022-09-01T00:04:21.496Z,412
2022-09-01T00:04:31.465Z,413
2022-09-01T00:04:41.490Z,414
2022-09-01T00:04:51.428Z,415
2022-09-01T00:05:01.421Z,415
2022-09-01T00:05:11.430Z,416
2022-09-01T00:05:21.448Z,416
2022-09-01T00:05:31.479Z,417
2022-09-01T00:05:41.483Z,415
2022-09-01T00:05:51.490Z,415
2022-09-01T00:06:01.500Z,414
2022-09-01T00:06:11.519Z,415
2022-09-01T00:06:21.536Z,415
2022-09-01T00:06:31.534Z,416
2022-09-01T00:06:41.564Z,418
2022-09-01T00:06:51.561Z,420
2022-09-01T00:07:01.576Z,421
2022-09-01T00:07:11.578Z,421
2022-09-01T00:07:21.591Z,422
2022-09-01T00:07:31.668Z,422
2022-09-01T00:07:51.630Z,420
2022-09-01T00:08:01.645Z,419
2022-09-01T00:08:11.654Z,420
2022-09-01T00:08:21.900Z,417
2022-09-01T00:08:31.685Z,418
2022-09-01T00:08:41.691Z,418
2022-09-01T00:08:51.710Z,416
2022-09-01T00:09:01.721Z,416
2022-09-01T00:09:11.735Z,416
2022-09-01T00:09:21.742Z,415
2022-09-01T00:09:31.757Z,418
2022-09-01T00:09:41.771Z,418
2022-09-01T00:09:51.789Z,418
2022-09-01T00:10:01.801Z,416
2022-09-01T00:10:11.809Z,418
2022-09-01T00:10:21.831Z,418
2022-09-01T00:10:31.846Z,420
2022-09-01T00:10:41.855Z,418
2022-09-01T00:10:51.867Z,417
2022-09-01T00:11:01.870Z,418
2022-09-01T00:11:11.889Z,419
2022-09-01T00:11:21.891Z,417
2022-09-01T00:11:31.911Z,417
2022-09-01T00:11:41.919Z,418
2022-09-01T00:11:51.928Z,416
2022-09-01T00:12:01.938Z,412
2022-09-01T00:12:11.963Z,412
2022-09-01T00:12:21.967Z,412
2022-09-01T00:12:31.976Z,413
2022-09-01T00:12:41.990Z,415
2022-09-01T00:12:52.001Z,415
2022-09-01T00:13:02.014Z,417
2022-09-01T00:13:12.029Z,418
2022-09-01T00:13:22.039Z,415
2022-09-01T00:13:32.067Z,415
2022-09-01T00:13:42.067Z,417
2022-09-01T00:13:52.081Z,418
2022-09-01T00:14:02.104Z,418
2022-09-01T00:14:29.615Z,418
2022-09-01T00:14:30.322Z,418
2022-09-01T00:14:32.126Z,417
2022-09-01T00:14:42.136Z,417
2022-09-01T00:14:52.145Z,416
2022-09-01T00:15:02.154Z,416
2022-09-01T00:15:12.169Z,415
2022-09-01T00:15:22.184Z,415
2022-09-01T00:15:32.275Z,412
2022-09-01T00:15:42.227Z,411
2022-09-01T00:15:52.292Z,412
2022-09-01T00:16:02.342Z,410
2022-09-01T00:16:12.295Z,410
2022-09-01T00:16:22.287Z,410
2022-09-01T00:16:32.267Z,410
2022-09-01T00:16:42.289Z,410
2022-09-01T00:16:52.307Z,410
2022-09-01T00:17:02.307Z,410
2022-09-01T00:17:12.318Z,409
2022-09-01T00:17:22.338Z,410
2022-09-01T00:17:32.350Z,410
2022-09-01T00:17:42.361Z,409
2022-09-01T00:17:52.370Z,407
2022-09-01T00:18:02.377Z,405
2022-09-01T00:18:12.469Z,406
2022-09-01T00:18:22.412Z,410
2022-09-01T00:18:32.431Z,411
2022-09-01T00:18:42.430Z,411
2022-09-01T00:18:52.453Z,412
2022-09-01T00:19:02.458Z,413
2022-09-01T00:19:22.504Z,413
2022-09-01T00:19:32.493Z,412
2022-09-01T00:19:42.508Z,413
2022-09-01T00:19:52.519Z,412
2022-09-01T00:20:02.531Z,413
2022-09-01T00:20:14.898Z,412
2022-09-01T00:20:22.554Z,413
2022-09-01T00:20:33.625Z,413
2022-09-01T00:20:42.580Z,415
2022-09-01T00:20:52.589Z,414
2022-09-01T00:21:02.604Z,415
2022-09-01T00:21:12.700Z,415
2022-09-01T00:21:22.623Z,414
2022-09-01T00:21:32.642Z,413
2022-09-01T00:21:42.711Z,413
2022-09-01T00:21:52.659Z,412
2022-09-01T00:22:02.682Z,412
2022-09-01T00:22:12.684Z,411
2022-09-01T00:22:22.794Z,411
2022-09-01T00:22:32.715Z,412
2022-09-01T00:22:42.723Z,411
2022-09-01T00:22:52.739Z,412
2022-09-01T00:23:02.750Z,411
2022-09-01T00:23:12.763Z,410
2022-09-01T00:23:22.785Z,410
2022-09-01T00:23:32.800Z,409
2022-09-01T00:23:42.806Z,409
2022-09-01T00:23:52.816Z,408
2022-09-01T00:24:02.835Z,406
2022-09-01T00:24:12.845Z,406
2022-09-01T00:24:22.862Z,404
2022-09-01T00:24:32.865Z,404
2022-09-01T00:24:42.882Z,401
2022-09-01T00:24:52.982Z,402
2022-09-01T00:25:02.909Z,402
2022-09-01T00:25:12.917Z,402
2022-09-01T00:25:22.925Z,402
2022-09-01T00:25:32.945Z,401
2022-09-01T00:25:42.963Z,402
2022-09-01T00:25:52.962Z,404
2022-09-01T00:26:02.976Z,405
2022-09-01T00:26:12.991Z,404
2022-09-01T00:26:23.013Z,404
2022-09-01T00:26:33.019Z,405
2022-09-01T00:26:43.031Z,406
2022-09-01T00:26:53.041Z,407
2022-09-01T00:27:03.057Z,408
2022-09-01T00:27:13.153Z,408
2022-09-01T00:27:23.075Z,409
2022-09-01T00:27:33.093Z,408
2022-09-01T00:27:43.096Z,407
2022-09-01T00:27:53.111Z,405
2022-09-01T00:28:03.128Z,404
2022-09-01T00:28:13.215Z,404
2022-09-01T00:28:23.151Z,404
2022-09-01T00:28:33.160Z,406
2022-09-01T00:28:43.163Z,407
2022-09-01T00:28:53.184Z,408
2022-09-01T00:29:03.191Z,407
2022-09-01T00:29:13.201Z,406
2022-09-01T00:29:23.211Z,407
2022-09-01T00:29:33.225Z,407
2022-09-01T00:29:43.969Z,407
2022-09-01T00:29:53.248Z,408
2022-09-01T00:30:03.259Z,405
2022-09-01T00:30:13.334Z,406
2022-09-01T00:30:23.290Z,406
2022-09-01T00:30:33.339Z,406
2022-09-01T00:30:43.382Z,407
2022-09-01T00:30:53.534Z,407
2022-09-01T00:31:03.389Z,407
2022-09-01T00:31:13.406Z,407
2022-09-01T00:31:23.426Z,408
2022-09-01T00:31:33.453Z,409
2022-09-01T00:31:43.390Z,411
2022-09-01T00:31:53.395Z,410
2022-09-01T00:32:03.526Z,411
2022-09-01T00:32:13.416Z,412
2022-09-01T00:32:23.439Z,415
2022-09-01T00:32:33.447Z,413
2022-09-01T00:32:43.467Z,415
2022-09-01T00:32:53.478Z,414
2022-09-01T00:33:03.486Z,415
2022-09-01T00:33:13.644Z,416
2022-09-01T00:33:23.507Z,414
2022-09-01T00:33:33.544Z,413
2022-09-01T00:33:43.530Z,414
2022-09-01T00:33:53.550Z,415
2022-09-01T00:34:03.564Z,413
2022-09-01T00:34:13.566Z,414
2022-09-01T00:34:23.760Z,413
2022-09-01T00:34:33.596Z,414
2022-09-01T00:34:43.607Z,415
2022-09-01T00:34:53.622Z,413
2022-09-01T00:35:03.637Z,413
2022-09-01T00:35:13.645Z,413
2022-09-01T00:35:23.672Z,411
2022-09-01T00:35:37.095Z,411
2022-09-01T00:35:43.683Z,410
2022-09-01T00:35:53.684Z,409
2022-09-01T00:36:03.700Z,410
2022-09-01T00:36:13.716Z,408
2022-09-01T00:36:23.729Z,407
2022-09-01T00:36:33.735Z,408
2022-09-01T00:36:43.855Z,409
2022-09-01T00:36:53.755Z,409
2022-09-01T00:37:03.771Z,409
2022-09-01T00:37:13.782Z,409
2022-09-01T00:37:23.796Z,411
2022-09-01T00:37:33.814Z,411
2022-09-01T00:37:43.828Z,411
2022-09-01T00:37:53.938Z,412
2022-09-01T00:38:03.847Z,413
2022-09-01T00:38:13.861Z,412
2022-09-01T00:38:23.896Z,413
2022-09-01T00:38:33.891Z,413
2022-09-01T00:38:43.896Z,413
2022-09-01T00:38:53.906Z,416
2022-09-01T00:39:04.056Z,416
2022-09-01T00:39:13.935Z,417
2022-09-01T00:39:23.950Z,417
2022-09-01T00:39:33.958Z,417
2022-09-01T00:39:43.977Z,415
2022-09-01T00:39:53.985Z,415
2022-09-01T00:40:04.008Z,416
2022-09-01T00:40:14.166Z,415
2022-09-01T00:40:24.104Z,414
2022-09-01T00:40:39.139Z,413
2022-09-01T00:40:44.097Z,414
2022-09-01T00:40:54.055Z,413
2022-09-01T00:41:04.077Z,413
2022-09-01T00:41:14.080Z,414
2022-09-01T00:41:24.090Z,415
2022-09-01T00:41:34.103Z,414
2022-09-01T00:41:44.126Z,413
2022-09-01T00:41:54.165Z,413
2022-09-01T00:42:04.145Z,415
2022-09-01T00:42:14.164Z,414
2022-09-01T00:42:24.166Z,413
2022-09-01T00:42:34.183Z,415
2022-09-01T00:42:44.199Z,415
2022-09-01T00:42:54.208Z,414
2022-09-01T00:43:04.221Z,415
2022-09-01T00:43:14.232Z,414
2022-09-01T00:43:24.246Z,414
2022-09-01T00:43:34.271Z,415
2022-09-01T00:43:44.277Z,415
2022-09-01T00:43:54.284Z,415
2022-09-01T00:44:04.301Z,415
2022-09-01T00:44:14.314Z,414
2022-09-01T00:44:24.363Z,414
2022-09-01T00:44:34.330Z,413
2022-09-01T00:44:44.349Z,412
2022-09-01T00:44:54.356Z,412
2022-09-01T00:45:04.370Z,410
2022-09-01T00:45:14.380Z,409
2022-09-01T00:45:24.394Z,408
2022-09-01T00:45:34.412Z,410
2022-09-01T00:45:44.545Z,411
2022-09-01T00:45:54.499Z,411
2022-09-01T00:46:04.473Z,410
2022-09-01T00:46:14.525Z,410
2022-09-01T00:46:24.546Z,411
2022-09-01T00:46:34.847Z,410
2022-09-01T00:46:49.571Z,410
2022-09-01T00:46:55.646Z,412
2022-09-01T00:47:04.498Z,411
2022-09-01T00:47:14.507Z,410
2022-09-01T00:47:24.533Z,411
2022-09-01T00:47:34.543Z,410
2022-09-01T00:47:44.545Z,410
2022-09-01T00:47:54.561Z,410
2022-09-01T00:48:04.577Z,410
2022-09-01T00:48:14.601Z,409
2022-09-01T00:48:24.599Z,410
2022-09-01T00:48:34.615Z,410
2022-09-01T00:48:44.629Z,411
2022-09-01T00:48:54.641Z,410
2022-09-01T00:49:04.653Z,411
2022-09-01T00:49:14.682Z,413
2022-09-01T00:49:24.672Z,412
2022-09-01T00:49:35.358Z,412
2022-09-01T00:49:44.700Z,412
2022-09-01T00:49:54.713Z,412
2022-09-01T00:50:04.722Z,411
2022-09-01T00:50:14.739Z,410
2022-09-01T00:50:24.750Z,411
2022-09-01T00:50:34.776Z,411
2022-09-01T00:50:44.775Z,412
2022-09-01T00:50:54.785Z,410
2022-09-01T00:51:04.798Z,408
2022-09-01T00:51:14.862Z,409
2022-09-01T00:51:24.900Z,408
2022-09-01T00:51:34.841Z,409
2022-09-01T00:51:44.848Z,409
2022-09-01T00:51:54.860Z,412
2022-09-01T00:52:04.869Z,412
2022-09-01T00:52:14.927Z,411
2022-09-01T00:52:24.895Z,409
2022-09-01T00:52:34.917Z,410
2022-09-01T00:52:44.930Z,407
2022-09-01T00:52:54.937Z,408
2022-09-01T00:53:04.949Z,408
2022-09-01T00:53:14.961Z,408
2022-09-01T00:53:24.977Z,409
2022-09-01T00:53:34.991Z,408
2022-09-01T00:53:45.025Z,410
2022-09-01T00:53:55.011Z,411
2022-09-01T00:54:05.039Z,410
2022-09-01T00:54:15.037Z,409
2022-09-01T00:54:25.050Z,411
2022-09-01T00:54:35.060Z,410
2022-09-01T00:54:45.086Z,410
2022-09-01T00:54:55.086Z,411
2022-09-01T00:55:05.106Z,410
2022-09-01T00:55:15.105Z,411
2022-09-01T00:55:25.124Z,411
2022-09-01T00:55:35.134Z,411
2022-09-01T00:55:45.156Z,410
2022-09-01T00:55:55.163Z,410
2022-09-01T00:56:05.175Z,408
2022-09-01T00:56:15.180Z,409
2022-09-01T00:56:25.198Z,408
2022-09-01T00:56:35.211Z,408
2022-09-01T00:56:46.462Z,406
2022-09-01T00:56:57.710Z,407
2022-09-01T00:57:05.239Z,407
2022-09-01T00:57:15.254Z,406
2022-09-01T00:57:25.265Z,404
2022-09-01T00:57:35.276Z,402
2022-09-01T00:57:45.294Z,403
2022-09-01T00:57:55.304Z,403
2022-09-01T00:58:05.320Z,402
2022-09-01T00:58:20.012Z,402
2022-09-01T00:58:25.331Z,401
2022-09-01T00:58:35.405Z,403
2022-09-01T00:58:45.359Z,402
2022-09-01T00:58:55.370Z,403
2022-09-01T00:59:05.390Z,403
2022-09-01T00:59:15.397Z,403
2022-09-01T00:59:25.415Z,404
2022-09-01T00:59:35.424Z,404
2022-09-01T00:59:45.438Z,407
2022-09-01T00:59:55.451Z,407
2022-09-01T01:00:05.464Z,407
2022-09-01T01:00:15.476Z,405
2022-09-01T01:00:25.488Z,408
2022-09-01T01:00:35.498Z,407
2022-09-01T01:00:45.507Z,407
2022-09-01T01:00:55.527Z,407
2022-09-01T01:01:05.636Z,407
2022-09-01T01:01:15.644Z,405
2022-09-01T01:01:25.648Z,404
2022-09-01T01:01:35.694Z,404
2022-09-01T01:01:45.704Z,403
2022-09-01T01:01:55.694Z,405
2022-09-01T01:02:05.646Z,406
2022-09-01T01:02:15.688Z,405
2022-09-01T01:02:25.727Z,405
2022-09-01T01:02:35.701Z,404
2022-09-01T01:02:45.690Z,403
2022-09-01T01:02:55.847Z,403
2022-09-01T01:03:05.688Z,401
2022-09-01T01:03:15.700Z,400
2022-09-01T01:03:25.709Z,400
2022-09-01T01:03:35.734Z,400
2022-09-01T01:03:45.737Z,400
2022-09-01T01:03:55.745Z,403
2022-09-01T01:04:05.755Z,403
2022-09-01T01:04:15.774Z,403
2022-09-01T01:04:25.787Z,403
2022-09-01T01:04:35.797Z,404
2022-09-01T01:04:45.805Z,404
2022-09-01T01:04:55.821Z,405
2022-09-01T01:05:05.840Z,405
2022-09-01T01:05:15.849Z,404
2022-09-01T01:05:25.867Z,405
2022-09-01T01:05:35.868Z,403
2022-09-01T01:05:45.884Z,402
2022-09-01T01:05:55.896Z,402
2022-09-01T01:06:05.906Z,401
2022-09-01T01:06:15.920Z,401
2022-09-01T01:06:25.930Z,399
2022-09-01T01:06:35.997Z,400
2022-09-01T01:06:46.022Z,402
2022-09-01T01:06:55.968Z,402
2022-09-01T01:07:05.975Z,403
2022-09-01T01:07:15.995Z,403
2022-09-01T01:07:26.003Z,404
2022-09-01T01:07:36.018Z,404
2022-09-01T01:07:47.742Z,407
2022-09-01T01:07:56.038Z,406
2022-09-01T01:08:06.050Z,405
2022-09-01T01:08:16.067Z,407
2022-09-01T01:08:26.083Z,407
2022-09-01T01:08:36.096Z,405
2022-09-01T01:08:46.103Z,406
2022-09-01T01:08:56.114Z,406
2022-09-01T01:09:06.133Z,407
2022-09-01T01:09:16.148Z,408
2022-09-01T01:09:26.227Z,407
2022-09-01T01:09:36.163Z,407
2022-09-01T01:09:51.202Z,406
2022-09-01T01:09:56.184Z,407
2022-09-01T01:10:06.200Z,408
2022-09-01T01:10:16.211Z,409
2022-09-01T01:10:26.229Z,408
2022-09-01T01:10:46.250Z,408
2022-09-01T01:10:56.255Z,409
2022-09-01T01:11:06.278Z,409
2022-09-01T01:11:16.295Z,409
2022-09-01T01:11:26.310Z,410
2022-09-01T01:11:36.325Z,409
2022-09-01T01:11:46.457Z,408
2022-09-01T01:11:56.336Z,408
2022-09-01T01:12:06.343Z,407
2022-09-01T01:12:16.362Z,406
2022-09-01T01:12:26.374Z,404
2022-09-01T01:12:36.380Z,402
2022-09-01T01:12:46.398Z,401
2022-09-01T01:12:56.570Z,400
2022-09-01T01:13:06.427Z,399
2022-09-01T01:13:16.434Z,397
2022-09-01T01:13:26.447Z,399
2022-09-01T01:13:36.473Z,399
2022-09-01T01:13:46.483Z,399
2022-09-01T01:13:56.494Z,398
2022-09-01T01:14:06.690Z,398
2022-09-01T01:14:16.500Z,399
2022-09-01T01:14:26.529Z,399
2022-09-01T01:14:36.530Z,400
2022-09-01T01:14:46.540Z,400
2022-09-01T01:14:56.555Z,403
2022-09-01T01:15:06.566Z,404
2022-09-01T01:15:16.660Z,404
2022-09-01T01:15:26.589Z,405
2022-09-01T01:15:36.608Z,404
2022-09-01T01:15:46.618Z,406
2022-09-01T01:15:56.632Z,405
2022-09-01T01:16:06.640Z,407
2022-09-01T01:16:16.744Z,408
2022-09-01T01:16:26.731Z,407
2022-09-01T01:16:36.754Z,406
2022-09-01T01:16:46.748Z,406
2022-09-01T01:16:56.816Z,406
2022-09-01T01:17:06.739Z,407
2022-09-01T01:17:16.792Z,407
2022-09-01T01:17:26.751Z,408
2022-09-01T01:17:36.760Z,409
2022-09-01T01:17:46.871Z,409
2022-09-01T01:17:56.782Z,411
2022-09-01T01:18:06.797Z,410
2022-09-01T01:18:18.832Z,411
2022-09-01T01:18:26.827Z,412
2022-09-01T01:18:36.826Z,412
2022-09-01T01:18:46.935Z,413
2022-09-01T01:18:56.857Z,413
2022-09-01T01:19:06.868Z,413
2022-09-01T01:19:16.877Z,413
2022-09-01T01:19:26.944Z,414
2022-09-01T01:19:38.987Z,414
2022-09-01T01:19:46.911Z,414
2022-09-01T01:19:56.927Z,414
2022-09-01T01:20:06.994Z,414
2022-09-01T01:20:16.946Z,414
2022-09-01T01:20:26.992Z,413
2022-09-01T01:20:37.020Z,413
2022-09-01T01:20:46.990Z,412
2022-09-01T01:20:56.995Z,413
2022-09-01T01:21:07.014Z,412
2022-09-01T01:21:17.020Z,414
2022-09-01T01:21:27.039Z,414
2022-09-01T01:21:37.052Z,414
2022-09-01T01:21:47.057Z,412
2022-09-01T01:21:57.132Z,411
2022-09-01T01:22:07.081Z,411
2022-09-01T01:22:17.105Z,412
2022-09-01T01:22:27.113Z,413
2022-09-01T01:22:37.214Z,414
2022-09-01T01:22:47.133Z,415
2022-09-01T01:22:57.149Z,415
2022-09-01T01:23:07.166Z,414
2022-09-01T01:23:17.183Z,414
2022-09-01T01:23:27.199Z,413
2022-09-01T01:23:37.216Z,414
2022-09-01T01:23:47.224Z,412
2022-09-01T01:23:57.229Z,411
2022-09-01T01:24:07.243Z,410
2022-09-01T01:24:17.274Z,411
2022-09-01T01:24:27.354Z,410
2022-09-01T01:24:37.288Z,410
2022-09-01T01:24:47.296Z,413
2022-09-01T01:24:57.309Z,411
2022-09-01T01:25:07.328Z,409
2022-09-01T01:25:17.326Z,409
2022-09-01T01:25:27.350Z,409
2022-09-01T01:25:37.449Z,410
2022-09-01T01:25:47.366Z,410
2022-09-01T01:25:57.375Z,411
2022-09-01T01:26:07.391Z,411
2022-09-01T01:26:17.399Z,412
2022-09-01T01:26:27.427Z,412
2022-09-01T01:26:37.432Z,412
2022-09-01T01:26:47.546Z,412
2022-09-01T01:26:57.446Z,413
2022-09-01T01:27:07.461Z,412
2022-09-01T01:27:17.474Z,410
2022-09-01T01:27:27.480Z,410
2022-09-01T01:27:42.967Z,409
2022-09-01T01:27:47.506Z,410
2022-09-01T01:27:57.685Z,410
2022-09-01T01:28:07.528Z,409
2022-09-01T01:28:17.622Z,407
2022-09-01T01:28:27.558Z,405
2022-09-01T01:28:37.583Z,405
2022-09-01T01:28:47.572Z,406
2022-09-01T01:29:07.691Z,406
2022-09-01T01:29:17.620Z,406
2022-09-01T01:29:27.622Z,405
2022-09-01T01:29:37.640Z,404
2022-09-01T01:29:47.650Z,404
2022-09-01T01:29:57.670Z,404
2022-09-01T01:30:09.327Z,403
2022-09-01T01:30:17.776Z,404
2022-09-01T01:30:27.777Z,404
2022-09-01T01:30:37.759Z,402
2022-09-01T01:30:47.778Z,402
2022-09-01T01:30:57.810Z,403
2022-09-01T01:31:07.802Z,403
2022-09-01T01:31:17.845Z,403
2022-09-01T01:31:27.864Z,406
2022-09-01T01:31:37.779Z,407
2022-09-01T01:31:47.798Z,407
2022-09-01T01:31:57.810Z,410
2022-09-01T01:32:07.831Z,409
2022-09-01T01:32:17.840Z,407
2022-09-01T01:32:27.856Z,409
2022-09-01T01:32:37.897Z,410
2022-09-01T01:32:47.894Z,411
2022-09-01T01:32:57.886Z,411
2022-09-01T01:33:17.923Z,414
2022-09-01T01:33:27.921Z,412
2022-09-01T01:33:37.951Z,411
2022-09-01T01:33:47.960Z,413
2022-09-01T01:33:57.958Z,414
2022-09-01T01:34:07.975Z,414
2022-09-01T01:34:17.982Z,412
2022-09-01T01:34:28.004Z,412
2022-09-01T01:34:38.021Z,414
2022-09-01T01:34:58.037Z,412
2022-09-01T01:35:08.048Z,414
2022-09-01T01:35:18.076Z,415
2022-09-01T01:35:28.073Z,414
2022-09-01T01:35:38.091Z,414
2022-09-01T01:35:48.103Z,414
2022-09-01T01:35:58.126Z,415
2022-09-01T01:36:08.128Z,415
2022-09-01T01:36:23.167Z,417
2022-09-01T01:36:28.143Z,418
2022-09-01T01:36:38.153Z,416
2022-09-01T01:36:48.165Z,413
2022-09-01T01:36:58.182Z,414
2022-09-01T01:37:08.184Z,414
2022-09-01T01:37:23.207Z,414
2022-09-01T01:37:28.207Z,414
2022-09-01T01:37:38.216Z,416
2022-09-01T01:37:48.240Z,418
2022-09-01T01:37:58.252Z,418
2022-09-01T01:38:08.254Z,419
2022-09-01T01:38:18.551Z,418
2022-09-01T01:38:28.278Z,419
2022-09-01T01:38:38.295Z,418
2022-09-01T01:38:48.307Z,418
2022-09-01T01:38:58.317Z,419
2022-09-01T01:39:08.338Z,418
2022-09-01T01:39:18.346Z,417
2022-09-01T01:39:28.363Z,415
2022-09-01T01:39:38.376Z,415
2022-09-01T01:39:48.382Z,416
2022-09-01T01:39:58.408Z,415
2022-09-01T01:40:08.461Z,415
2022-09-01T01:40:18.553Z,414
2022-09-01T01:40:28.496Z,414
2022-09-01T01:40:38.554Z,412
2022-09-01T01:40:48.652Z,412
2022-09-01T01:40:58.477Z,411
2022-09-01T01:41:08.485Z,411
2022-09-01T01:41:18.490Z,411
2022-09-01T01:41:28.513Z,409
2022-09-01T01:41:38.519Z,409
2022-09-01T01:41:48.536Z,408
2022-09-01T01:41:58.549Z,407
2022-09-01T01:42:08.558Z,407
2022-09-01T01:42:18.660Z,408
2022-09-01T01:42:28.579Z,408
2022-09-01T01:42:38.597Z,406
2022-09-01T01:42:48.608Z,407
2022-09-01T01:42:58.629Z,409
2022-09-01T01:43:08.635Z,408
2022-09-01T01:43:18.644Z,411
2022-09-01T01:43:38.672Z,410
2022-09-01T01:43:48.695Z,410
2022-09-01T01:43:58.700Z,407
2022-09-01T01:44:08.708Z,409
2022-09-01T01:44:18.725Z,410
2022-09-01T01:44:29.014Z,409
2022-09-01T01:44:38.833Z,408
2022-09-01T01:44:48.755Z,409
2022-09-01T01:44:58.783Z,409
2022-09-01T01:45:08.789Z,409
2022-09-01T01:45:18.802Z,410
2022-09-01T01:45:28.861Z,411
2022-09-01T01:45:38.939Z,411
2022-09-01T01:45:48.931Z,412
2022-09-01T01:45:58.935Z,412
2022-09-01T01:46:08.868Z,412
2022-09-01T01:46:18.959Z,411
2022-09-01T01:46:28.942Z,408
2022-09-01T01:46:38.892Z,408
2022-09-01T01:46:48.905Z,409
2022-09-01T01:46:58.939Z,408
2022-09-01T01:47:08.930Z,407
2022-09-01T01:47:18.950Z,408
2022-09-01T01:47:28.954Z,407
2022-09-01T01:47:39.009Z,407
2022-09-01T01:47:48.983Z,408
2022-09-01T01:47:58.992Z,409
2022-09-01T01:48:09.091Z,409
2022-09-01T01:48:19.213Z,411
2022-09-01T01:48:29.028Z,409
2022-09-01T01:48:39.046Z,410
2022-09-01T01:48:49.059Z,413
2022-09-01T01:48:59.065Z,413
2022-09-01T01:49:09.081Z,411
2022-09-01T01:49:20.184Z,411
2022-09-01T01:49:29.183Z,412
2022-09-01T01:49:39.117Z,411
2022-09-01T01:49:49.129Z,411
2022-09-01T01:49:59.147Z,412
2022-09-01T01:50:09.159Z,410
2022-09-01T01:50:19.166Z,410
2022-09-01T01:50:29.192Z,412
2022-09-01T01:50:39.289Z,412
2022-09-01T01:50:49.203Z,412
2022-09-01T01:50:59.220Z,412
2022-09-01T01:51:09.228Z,413
2022-09-01T01:51:19.248Z,414
2022-09-01T01:51:29.260Z,415
2022-09-01T01:51:39.274Z,414
2022-09-01T01:51:49.280Z,414
2022-09-01T01:51:59.295Z,414
2022-09-01T01:52:09.398Z,414
2022-09-01T01:52:19.322Z,414
2022-09-01T01:52:29.329Z,414
2022-09-01T01:52:39.356Z,413
2022-09-01T01:52:49.368Z,414
2022-09-01T01:52:59.361Z,414
2022-09-01T01:53:10.972Z,415
2022-09-01T01:53:19.407Z,412
2022-09-01T01:53:29.396Z,409
2022-09-01T01:53:39.409Z,410
2022-09-01T01:53:49.419Z,407
2022-09-01T01:53:59.434Z,408
2022-09-01T01:54:09.510Z,410
2022-09-01T01:54:19.458Z,408
2022-09-01T01:54:39.523Z,411
2022-09-01T01:54:49.545Z,414
2022-09-01T01:55:04.545Z,413
2022-09-01T01:55:09.640Z,414
2022-09-01T01:55:19.628Z,416
2022-09-01T01:55:29.541Z,415
2022-09-01T01:55:39.560Z,414
2022-09-01T01:55:49.571Z,414
2022-09-01T01:55:59.580Z,414
2022-09-01T01:56:09.674Z,415
2022-09-01T01:56:19.681Z,415
2022-09-01T01:56:29.618Z,414
2022-09-01T01:56:39.629Z,415
2022-09-01T01:56:49.651Z,415
2022-09-01T01:56:59.665Z,414
2022-09-01T01:57:09.785Z,415
2022-09-01T01:57:19.676Z,414
2022-09-01T01:57:29.688Z,413
2022-09-01T01:57:39.706Z,415
2022-09-01T01:57:49.723Z,414
2022-09-01T01:57:59.726Z,413
2022-09-01T01:58:09.809Z,412
2022-09-01T01:58:20.172Z,413
2022-09-01T01:58:29.771Z,411
2022-09-01T01:58:39.778Z,412
2022-09-01T01:58:49.787Z,412
2022-09-01T01:58:59.803Z,413
2022-09-01T01:59:09.918Z,414
2022-09-01T01:59:19.829Z,413
2022-09-01T01:59:29.846Z,412
2022-09-01T01:59:39.875Z,412
2022-09-01T01:59:49.870Z,413
2022-09-01T01:59:59.889Z,414
2022-09-01T02:00:09.975Z,413
2022-09-01T02:00:27.026Z,413
2022-09-01T02:00:30.402Z,411
2022-09-01T02:00:39.928Z,411
2022-09-01T02:00:49.936Z,411
2022-09-01T02:01:00.056Z,412
2022-09-01T02:01:10.029Z,413
2022-09-01T02:01:20.078Z,413
2022-09-01T02:01:30.129Z,413
2022-09-01T02:01:40.072Z,414
2022-09-01T02:01:50.058Z,414
2022-09-01T02:02:00.088Z,414
2022-09-01T02:02:10.173Z,415
2022-09-01T02:02:20.119Z,415
2022-09-01T02:02:30.116Z,414
2022-09-01T02:02:40.198Z,417
2022-09-01T02:02:50.163Z,416
2022-09-01T02:03:00.100Z,416
2022-09-01T02:03:10.149Z,417
2022-09-01T02:03:20.148Z,418
2022-09-01T02:03:30.134Z,418
2022-09-01T02:03:40.147Z,418
2022-09-01T02:03:50.154Z,419
2022-09-01T02:04:00.208Z,419
2022-09-01T02:04:10.188Z,417
2022-09-01T02:04:20.198Z,419
2022-09-01T02:04:30.219Z,419
2022-09-01T02:04:40.226Z,420
2022-09-01T02:04:50.235Z,419
2022-09-01T02:05:00.250Z,418
2022-09-01T02:05:10.260Z,417
2022-09-01T02:05:20.269Z,416
2022-09-01T02:05:30.297Z,418
2022-09-01T02:05:40.306Z,418
2022-09-01T02:05:50.309Z,416
2022-09-01T02:06:00.332Z,413
2022-09-01T02:06:10.339Z,414
2022-09-01T02:06:20.368Z,414
2022-09-01T02:06:30.371Z,414
2022-09-01T02:06:40.388Z,414
2022-09-01T02:06:50.383Z,414
2022-09-01T02:07:00.394Z,414
2022-09-01T02:07:10.414Z,414
2022-09-01T02:07:20.427Z,415
2022-09-01T02:07:30.450Z,414
2022-09-01T02:07:40.440Z,414
2022-09-01T02:07:50.459Z,415
2022-09-01T02:08:00.466Z,415
2022-09-01T02:08:10.484Z,416
2022-09-01T02:08:20.622Z,416
2022-09-01T02:08:30.513Z,415
2022-09-01T02:08:40.518Z,415
2022-09-01T02:08:50.537Z,415
2022-09-01T02:09:00.546Z,415
2022-09-01T02:09:10.561Z,414
2022-09-01T02:09:20.651Z,413
2022-09-01T02:09:30.585Z,413
2022-09-01T02:09:40.610Z,411
2022-09-01T02:09:50.608Z,411
2022-09-01T02:10:00.625Z,410
2022-09-01T02:10:10.646Z,410
2022-09-01T02:10:20.648Z,410
2022-09-01T02:10:30.661Z,409
2022-09-01T02:10:40.679Z,410
2022-09-01T02:10:50.694Z,409
2022-09-01T02:11:00.698Z,409
2022-09-01T02:11:10.712Z,409
2022-09-01T02:11:20.731Z,409
2022-09-01T02:11:30.744Z,409
2022-09-01T02:11:40.754Z,412
2022-09-01T02:11:50.848Z,412
2022-09-01T02:12:00.787Z,411
2022-09-01T02:12:10.794Z,411
2022-09-01T02:12:20.810Z,413
2022-09-01T02:12:30.810Z,413
2022-09-01T02:12:40.826Z,413
2022-09-01T02:12:50.831Z,412
2022-09-01T02:13:00.844Z,413
2022-09-01T02:13:10.859Z,414
2022-09-01T02:13:20.893Z,416
2022-09-01T02:13:30.972Z,416
2022-09-01T02:13:40.896Z,416
2022-09-01T02:13:50.903Z,414
2022-09-01T02:14:00.917Z,416
2022-09-01T02:14:10.936Z,417
2022-09-01T02:14:20.944Z,417
2022-09-01T02:14:30.955Z,416
2022-09-01T02:14:40.989Z,416
2022-09-01T02:14:50.979Z,416
2022-09-01T02:15:00.987Z,414
2022-09-01T02:15:11.006Z,414
2022-09-01T02:15:21.017Z,414
2022-09-01T02:15:31.039Z,414
2022-09-01T02:15:41.050Z,413
2022-09-01T02:15:51.056Z,413
2022-09-01T02:16:01.112Z,414
2022-09-01T02:16:11.086Z,415
2022-09-01T02:16:21.161Z,416
2022-09-01T02:16:31.137Z,414
2022-09-01T02:16:41.181Z,414
2022-09-01T02:16:51.271Z,413
2022-09-01T02:17:01.214Z,410
2022-09-01T02:17:11.254Z,408
2022-09-01T02:17:21.166Z,409
2022-09-01T02:17:31.171Z,408
2022-09-01T02:17:41.189Z,407
2022-09-01T02:17:51.201Z,407
2022-09-01T02:18:04.974Z,407
2022-09-01T02:18:11.228Z,408
2022-09-01T02:18:21.429Z,409
2022-09-01T02:18:31.287Z,410
2022-09-01T02:18:41.259Z,410
2022-09-01T02:18:51.272Z,410
2022-09-01T02:19:01.279Z,411
2022-09-01T02:19:11.294Z,412